createdAt,value
2023-05-16T00:00:48.315Z,16.12
2023-05-16T00:03:20.593Z,14.89
2023-05-16T00:05:56.184Z,15.68
2023-05-16T00:08:28.770Z,16.49
2023-05-16T00:11:01.709Z,16.59
2023-05-16T00:13:34.183Z,15.82
2023-05-16T00:16:07.167Z,16.67
2023-05-16T00:18:40.387Z,16.24
2023-05-16T00:21:15.268Z,15.60
2023-05-16T00:23:47.432Z,16.47
2023-05-16T00:26:19.662Z,15.79
2023-05-16T00:28:52.907Z,16.61
2023-05-16T00:31:25.247Z,16.84
2023-05-16T00:33:57.718Z,15.90
2023-05-16T00:36:35.398Z,15.05
2023-05-16T00:39:07.748Z,18.35
2023-05-16T00:41:40.114Z,17.02
2023-05-16T00:44:12.399Z,15.06
2023-05-16T00:46:44.633Z,16.00
2023-05-16T00:49:17.173Z,15.65
2023-05-16T00:51:54.196Z,16.73
2023-05-16T00:54:29.828Z,15.36
2023-05-16T00:57:02.156Z,14.97
2023-05-16T00:59:34.504Z,15.22
2023-05-16T01:02:07.049Z,15.69
2023-05-16T01:04:42.725Z,16.00
2023-05-16T01:07:17.864Z,14.88
2023-05-16T01:09:50.498Z,14.74
2023-05-16T01:12:35.943Z,16.38
2023-05-16T01:15:16.204Z,15.19
2023-05-16T01:18:00.931Z,15.78
2023-05-16T01:20:48.413Z,15.93
2023-05-16T01:23:44.589Z,15.75
2023-05-16T01:26:23.949Z,15.36
2023-05-16T01:28:58.342Z,16.46
2023-05-16T01:31:30.804Z,15.84
2023-05-16T01:34:03.241Z,15.89
2023-05-16T01:36:43.609Z,14.74
2023-05-16T01:39:24.607Z,15.39
2023-05-16T01:42:09.671Z,16.04
2023-05-16T01:44:49.460Z,16.59
2023-05-16T01:47:25.690Z,15.97
2023-05-16T01:50:07.691Z,14.45
2023-05-16T01:52:46.598Z,15.49
2023-05-16T01:55:25.566Z,14.91
2023-05-16T01:58:02.758Z,15.50
2023-05-16T02:00:35.329Z,16.33
2023-05-16T02:03:07.826Z,15.51
2023-05-16T02:05:40.132Z,15.50
2023-05-16T02:08:13.603Z,16.23
2023-05-16T02:10:45.807Z,15.77
2023-05-16T02:13:20.672Z,15.34
2023-05-16T02:15:53.164Z,15.27
2023-05-16T02:18:26.221Z,15.06
2023-05-16T02:20:58.661Z,15.09
2023-05-16T02:23:30.987Z,15.59
2023-05-16T02:26:03.534Z,15.75
2023-05-16T02:28:39.004Z,15.94
2023-05-16T02:31:11.314Z,15.77
2023-05-16T02:33:43.532Z,15.64
2023-05-16T02:36:16.523Z,16.90
2023-05-16T02:38:48.851Z,15.81
2023-05-16T02:41:22.471Z,16.20
2023-05-16T02:43:57.304Z,17.02
2023-05-16T02:46:31.584Z,16.76
2023-05-16T02:49:04.422Z,16.04
2023-05-16T02:51:36.604Z,16.67
2023-05-16T02:54:10.097Z,16.36
2023-05-16T02:56:42.312Z,16.16
2023-05-16T02:59:17.427Z,15.90
2023-05-16T03:01:49.661Z,16.56
2023-05-16T03:04:23.069Z,16.44
2023-05-16T03:06:55.242Z,16.93
2023-05-16T03:09:27.665Z,15.94
2023-05-16T03:11:59.792Z,15.06
2023-05-16T03:14:34.528Z,16.11
2023-05-16T03:17:06.959Z,16.34
2023-05-16T03:19:39.667Z,16.26
2023-05-16T03:22:11.847Z,16.19
2023-05-16T03:24:45.157Z,14.81
2023-05-16T03:27:17.421Z,16.79
2023-05-16T03:29:52.207Z,16.01
2023-05-16T03:32:24.343Z,16.17
2023-05-16T03:34:56.506Z,16.21
2023-05-16T03:37:29.330Z,17.14
2023-05-16T03:40:01.592Z,17.52
2023-05-16T03:42:34.130Z,16.72
2023-05-16T03:45:10.799Z,16.46
2023-05-16T03:47:43.143Z,16.82
2023-05-16T03:50:15.661Z,16.34
2023-05-16T03:52:47.864Z,15.54
2023-05-16T03:55:20.203Z,15.66
2023-05-16T03:57:53.364Z,15.99
2023-05-16T04:00:28.205Z,17.30
2023-05-16T04:03:00.596Z,15.59
2023-05-16T04:05:32.833Z,16.45
2023-05-16T04:08:05.369Z,16.44
2023-05-16T04:10:37.546Z,15.96
2023-05-16T04:13:10.126Z,15.13
2023-05-16T04:15:44.904Z,15.90
2023-05-16T04:18:17.503Z,16.24
2023-05-16T04:20:50.480Z,16.38
2023-05-16T04:23:22.667Z,15.46
2023-05-16T04:25:55.422Z,17.11
2023-05-16T04:28:27.858Z,16.49
2023-05-16T04:31:03.287Z,17.45
2023-05-16T04:33:35.587Z,15.29
2023-05-16T04:36:08.829Z,15.79
2023-05-16T04:38:42.004Z,15.74
2023-05-16T04:41:14.195Z,17.29
2023-05-16T04:43:46.821Z,16.14
2023-05-16T04:46:22.234Z,16.82
2023-05-16T04:48:54.941Z,16.79
2023-05-16T04:51:27.346Z,15.84
2023-05-16T04:53:59.490Z,15.45
2023-05-16T04:56:31.651Z,15.42
2023-05-16T04:59:04.351Z,15.43
2023-05-16T05:01:39.923Z,16.06
2023-05-16T05:04:12.510Z,14.99
2023-05-16T05:06:44.678Z,15.04
2023-05-16T05:09:17.456Z,14.43
2023-05-16T05:11:49.632Z,14.85
2023-05-16T05:14:21.920Z,15.29
2023-05-16T05:16:56.698Z,15.48
2023-05-16T05:19:28.901Z,14.60
2023-05-16T05:22:01.046Z,14.92
2023-05-16T05:24:33.340Z,14.36
2023-05-16T05:27:05.755Z,14.35
2023-05-16T05:29:38.063Z,14.09
2023-05-16T05:32:12.949Z,14.96
2023-05-16T05:34:45.202Z,14.14
2023-05-16T05:37:17.598Z,14.21
2023-05-16T05:39:49.895Z,13.63
2023-05-16T05:42:22.095Z,15.00
2023-05-16T05:44:54.248Z,14.51
2023-05-16T05:47:29.138Z,13.48
2023-05-16T05:50:02.826Z,14.75
2023-05-16T05:52:35.011Z,13.89
2023-05-16T05:55:07.438Z,14.90
2023-05-16T05:57:39.618Z,14.72
2023-05-16T06:00:13.060Z,13.49
2023-05-16T06:02:47.976Z,13.57
2023-05-16T06:05:20.351Z,13.32
2023-05-16T06:07:52.622Z,11.89
2023-05-16T06:10:24.765Z,11.91
2023-05-16T06:12:56.990Z,12.26
2023-05-16T06:15:29.914Z,13.75
2023-05-16T06:18:05.019Z,11.07
2023-05-16T06:20:37.210Z,12.24
2023-05-16T06:23:09.472Z,11.62
2023-05-16T06:25:41.654Z,11.18
2023-05-16T06:28:14.068Z,10.71
2023-05-16T06:30:47.999Z,11.86
2023-05-16T06:33:22.873Z,10.74
2023-05-16T06:35:55.233Z,11.44
2023-05-16T06:38:27.459Z,12.41
2023-05-16T06:40:59.635Z,11.12
2023-05-16T06:43:31.849Z,10.62
2023-05-16T06:46:04.152Z,11.25
2023-05-16T06:48:39.155Z,9.80
2023-05-16T06:51:11.383Z,10.15
2023-05-16T06:53:43.708Z,10.72
2023-05-16T06:56:15.999Z,10.25
2023-05-16T06:58:49.699Z,10.58
2023-05-16T07:01:21.989Z,11.08
2023-05-16T07:03:56.963Z,10.15
2023-05-16T07:06:29.206Z,10.14
2023-05-16T07:09:02.446Z,9.85
2023-05-16T07:11:34.789Z,9.41
2023-05-16T07:14:07.080Z,8.99
2023-05-16T07:16:39.420Z,8.92
2023-05-16T07:19:14.280Z,9.24
2023-05-16T07:21:46.590Z,9.04
2023-05-16T07:24:18.803Z,8.49
2023-05-16T07:26:51.295Z,9.96
2023-05-16T07:29:23.852Z,9.44
2023-05-16T07:31:56.389Z,9.84
2023-05-16T07:34:31.694Z,9.21
2023-05-16T07:37:03.891Z,8.57
2023-05-16T07:39:36.383Z,7.79
2023-05-16T07:42:08.752Z,8.11
2023-05-16T07:44:41.029Z,8.74
2023-05-16T07:47:13.193Z,9.23
2023-05-16T07:49:48.180Z,9.17
2023-05-16T07:52:20.400Z,8.51
2023-05-16T07:54:52.511Z,8.83
2023-05-16T07:57:25.302Z,9.64
2023-05-16T07:59:58.107Z,8.95
2023-05-16T08:02:31.575Z,8.95
2023-05-16T08:05:06.522Z,9.42
2023-05-16T08:07:38.824Z,8.86
2023-05-16T08:10:13.794Z,9.34
2023-05-16T08:12:46.598Z,8.44
2023-05-16T08:15:18.946Z,9.04
2023-05-16T08:17:51.343Z,9.04
2023-05-16T08:20:26.125Z,9.24
2023-05-16T08:22:59.118Z,8.62
2023-05-16T08:25:31.709Z,9.14
2023-05-16T08:28:04.534Z,8.63
2023-05-16T08:30:36.749Z,8.31
2023-05-16T08:33:10.629Z,8.83
2023-05-16T08:35:46.958Z,9.23
2023-05-16T08:38:19.500Z,8.60
2023-05-16T08:40:51.702Z,9.75
2023-05-16T08:43:24.206Z,7.91
2023-05-16T08:45:56.946Z,8.77
2023-05-16T08:48:32.709Z,8.36
2023-05-16T08:51:13.660Z,9.91
2023-05-16T08:53:54.590Z,10.20
2023-05-16T08:56:28.886Z,8.75
2023-05-16T08:59:02.372Z,8.10
2023-05-16T09:01:35.158Z,9.35
2023-05-16T09:04:10.949Z,8.15
2023-05-16T09:06:45.777Z,8.92
2023-05-16T09:09:18.162Z,7.61
2023-05-16T09:11:50.939Z,8.16
2023-05-16T09:14:23.493Z,8.53
2023-05-16T09:17:11.519Z,7.25
2023-05-16T09:19:48.789Z,6.57
2023-05-16T09:22:23.787Z,7.19
2023-05-16T09:24:55.917Z,8.64
2023-05-16T09:27:28.412Z,7.62
2023-05-16T09:30:03.278Z,7.01
2023-05-16T09:32:36.169Z,7.24
2023-05-16T09:35:09.203Z,6.89
2023-05-16T09:37:49.558Z,7.19
2023-05-16T09:40:25.208Z,6.98
2023-05-16T09:43:08.044Z,6.85
2023-05-16T09:45:40.988Z,6.63
2023-05-16T09:48:16.011Z,6.86
2023-05-16T09:50:53.574Z,8.41
2023-05-16T09:53:35.829Z,8.81
2023-05-16T09:56:09.937Z,7.36
2023-05-16T09:58:44.019Z,6.96
2023-05-16T10:01:16.894Z,7.66
2023-05-16T10:03:49.952Z,7.21
2023-05-16T10:06:25.278Z,9.49
2023-05-16T10:09:02.945Z,8.16
2023-05-16T10:11:36.792Z,7.62
2023-05-16T10:14:10.936Z,7.19
2023-05-16T10:16:48.808Z,7.80
2023-05-16T10:19:24.351Z,6.99
2023-05-16T10:22:02.557Z,7.16
2023-05-16T10:24:47.595Z,7.16
2023-05-16T10:27:21.613Z,6.81
2023-05-16T10:29:55.922Z,7.77
2023-05-16T10:32:30.106Z,9.11
2023-05-16T10:35:03.444Z,8.59
2023-05-16T10:37:37.410Z,8.84
2023-05-16T10:40:15.853Z,8.11
2023-05-16T10:42:58.514Z,7.36
2023-05-16T10:45:31.290Z,7.34
2023-05-16T10:48:08.949Z,8.19
2023-05-16T10:50:43.989Z,8.09
2023-05-16T10:53:22.617Z,8.05
2023-05-16T10:56:12.076Z,7.91
2023-05-16T10:58:46.205Z,8.13
2023-05-16T11:01:23.780Z,9.04
2023-05-16T11:04:10.317Z,8.31
2023-05-16T11:06:54.854Z,7.91
2023-05-16T11:09:30.041Z,7.82
2023-05-16T11:12:06.706Z,7.74
2023-05-16T11:14:47.821Z,8.77
2023-05-16T11:17:27.803Z,6.96
2023-05-16T11:20:04.203Z,6.48
2023-05-16T11:22:37.558Z,7.54
2023-05-16T11:25:12.164Z,6.33
2023-05-16T11:27:51.500Z,5.61
2023-05-16T11:30:24.905Z,6.91
2023-05-16T11:32:59.341Z,6.09
2023-05-16T11:35:31.790Z,6.69
2023-05-16T11:38:04.056Z,6.54
2023-05-16T11:40:36.399Z,7.10
2023-05-16T11:43:11.661Z,6.59
2023-05-16T11:45:43.919Z,6.96
2023-05-16T11:48:24.734Z,8.16
2023-05-16T11:51:05.118Z,6.59
2023-05-16T11:53:38.391Z,8.15
2023-05-16T11:56:13.076Z,7.99
2023-05-16T11:58:48.613Z,7.14
2023-05-16T12:01:20.789Z,7.71
2023-05-16T12:03:59.798Z,7.21
2023-05-16T12:06:32.601Z,8.00
2023-05-16T12:09:10.626Z,8.26
2023-05-16T12:11:43.397Z,7.26
2023-05-16T12:14:19.188Z,8.34
2023-05-16T12:16:52.202Z,7.38
2023-05-16T12:19:25.877Z,7.49
2023-05-16T12:21:59.108Z,8.17
2023-05-16T12:24:34.691Z,6.81
2023-05-16T12:27:06.947Z,8.24
2023-05-16T12:29:42.026Z,7.81
2023-05-16T12:32:14.316Z,8.11
2023-05-16T12:34:54.988Z,6.78
2023-05-16T12:37:27.274Z,8.19
2023-05-16T12:40:04.463Z,8.41
2023-05-16T12:42:37.059Z,8.58
2023-05-16T12:45:19.792Z,8.71
2023-05-16T12:47:52.260Z,8.52
2023-05-16T12:50:24.869Z,8.55
2023-05-16T12:52:59.056Z,8.56
2023-05-16T12:55:31.309Z,8.71
2023-05-16T12:58:05.531Z,8.62
2023-05-16T13:00:41.034Z,8.67
2023-05-16T13:03:13.318Z,8.36
2023-05-16T13:05:45.969Z,7.86
2023-05-16T13:08:18.253Z,9.46
2023-05-16T13:10:50.937Z,8.66
2023-05-16T13:13:35.509Z,8.38
2023-05-16T13:16:11.466Z,8.61
2023-05-16T13:18:43.788Z,9.53
2023-05-16T13:21:16.302Z,8.40
2023-05-16T13:23:48.516Z,8.55
2023-05-16T13:26:21.816Z,8.56
2023-05-16T13:28:55.286Z,9.09
2023-05-16T13:31:30.160Z,8.21
2023-05-16T13:34:02.372Z,9.59
2023-05-16T13:36:49.398Z,8.75
2023-05-16T13:39:26.032Z,8.92
2023-05-16T13:42:00.180Z,8.01
2023-05-16T13:44:32.550Z,8.07
2023-05-16T13:47:08.001Z,8.39
2023-05-16T13:49:40.313Z,8.22
2023-05-16T13:52:12.625Z,9.36
2023-05-16T13:54:45.128Z,8.07
2023-05-16T13:57:17.422Z,8.72
2023-05-16T14:00:11.522Z,7.97
2023-05-16T14:02:45.124Z,8.06
2023-05-16T14:05:17.376Z,8.53
2023-05-16T14:07:49.596Z,8.13
2023-05-16T14:10:21.852Z,9.39
2023-05-16T14:12:54.210Z,9.64
2023-05-16T14:15:26.901Z,7.59
2023-05-16T14:18:04.170Z,8.86
2023-05-16T14:20:36.379Z,7.59
2023-05-16T14:23:08.643Z,9.14
2023-05-16T14:25:40.945Z,8.91
2023-05-16T14:28:13.366Z,9.44
2023-05-16T14:30:47.913Z,9.71
2023-05-16T14:33:22.927Z,9.96
2023-05-16T14:35:55.139Z,8.38
2023-05-16T14:38:28.242Z,8.45
2023-05-16T14:41:00.523Z,7.89
2023-05-16T14:43:32.671Z,8.91
2023-05-16T14:46:04.893Z,8.66
2023-05-16T14:48:39.903Z,7.34
2023-05-16T14:51:12.235Z,8.49
2023-05-16T14:53:46.777Z,7.83
2023-05-16T14:56:20.415Z,7.80
2023-05-16T14:58:52.780Z,8.29
2023-05-16T15:01:25.476Z,6.89
2023-05-16T15:04:00.375Z,8.21
2023-05-16T15:06:32.511Z,8.41
2023-05-16T15:09:05.998Z,8.07
2023-05-16T15:11:38.181Z,7.62
2023-05-16T15:14:11.227Z,7.27
2023-05-16T15:16:43.464Z,7.31
2023-05-16T15:19:18.564Z,8.26
2023-05-16T15:21:50.832Z,7.49
2023-05-16T15:24:23.346Z,8.01
2023-05-16T15:26:55.689Z,7.29
2023-05-16T15:29:28.067Z,8.47
2023-05-16T15:32:00.420Z,8.01
2023-05-16T15:34:35.302Z,8.06
2023-05-16T15:37:07.675Z,7.95
2023-05-16T15:39:40.169Z,7.43
2023-05-16T15:42:13.011Z,7.42
2023-05-16T15:44:45.333Z,7.18
2023-05-16T15:47:17.638Z,7.51
2023-05-16T15:49:52.644Z,8.51
2023-05-16T15:52:24.875Z,7.43
2023-05-16T15:54:57.091Z,7.79
2023-05-16T15:57:29.305Z,7.74
2023-05-16T16:00:01.731Z,8.40
2023-05-16T16:02:33.999Z,10.11
2023-05-16T16:05:09.338Z,8.93
2023-05-16T16:07:41.475Z,9.29
2023-05-16T16:10:14.919Z,10.49
2023-05-16T16:12:47.083Z,11.18
2023-05-16T16:15:19.936Z,9.52
2023-05-16T16:17:52.207Z,8.79
2023-05-16T16:20:27.168Z,9.71
2023-05-16T16:22:59.378Z,9.96
2023-05-16T16:25:31.589Z,9.28
2023-05-16T16:28:04.078Z,10.86
2023-05-16T16:30:36.321Z,11.78
2023-05-16T16:33:08.565Z,11.54
2023-05-16T16:35:43.443Z,12.22
2023-05-16T16:38:15.957Z,14.87
2023-05-16T16:40:48.186Z,15.69
2023-05-16T16:43:20.410Z,15.69
2023-05-16T16:45:52.644Z,15.10
2023-05-16T16:48:24.937Z,15.00
2023-05-16T16:50:59.720Z,16.18
2023-05-16T16:53:32.532Z,16.35
2023-05-16T16:56:04.775Z,16.99
2023-05-16T16:58:37.064Z,16.00
2023-05-16T17:01:10.013Z,16.15
2023-05-16T17:03:42.370Z,15.89
2023-05-16T17:06:17.169Z,16.06
2023-05-16T17:08:49.700Z,16.44
2023-05-16T17:11:23.628Z,17.16
2023-05-16T17:13:59.446Z,16.36
2023-05-16T17:16:31.742Z,17.68
2023-05-16T17:19:04.785Z,17.60
2023-05-16T17:21:40.938Z,17.76
2023-05-16T17:24:13.632Z,20.24
2023-05-16T17:26:46.009Z,18.82
2023-05-16T17:29:18.323Z,20.94
2023-05-16T17:31:50.592Z,20.07
2023-05-16T17:34:23.521Z,19.56
2023-05-16T17:36:58.342Z,21.19
2023-05-16T17:39:30.606Z,21.94
2023-05-16T17:42:02.906Z,18.32
2023-05-16T17:44:35.165Z,15.93
2023-05-16T17:47:07.434Z,18.02
2023-05-16T17:49:39.684Z,16.04
2023-05-16T17:52:15.243Z,15.46
2023-05-16T17:54:47.444Z,15.56
2023-05-16T17:57:19.876Z,15.82
2023-05-16T17:59:52.101Z,15.58
2023-05-16T18:02:24.348Z,14.88
2023-05-16T18:04:56.590Z,14.05
2023-05-16T18:07:31.547Z,13.11
2023-05-16T18:10:03.796Z,14.65
2023-05-16T18:12:36.210Z,12.61
2023-05-16T18:15:09.199Z,11.26
2023-05-16T18:17:41.503Z,11.91
2023-05-16T18:20:15.385Z,11.41
2023-05-16T18:22:51.821Z,12.11
2023-05-16T18:25:25.500Z,11.87
2023-05-16T18:27:57.819Z,11.49
2023-05-16T18:30:30.737Z,12.29
2023-05-16T18:33:03.977Z,13.34
2023-05-16T18:35:36.178Z,11.79
2023-05-16T18:38:17.394Z,12.39
2023-05-16T18:40:56.988Z,14.66
2023-05-16T18:43:29.250Z,12.79
2023-05-16T18:46:01.479Z,13.56
2023-05-16T18:48:35.908Z,14.42
2023-05-16T18:51:08.910Z,14.81
2023-05-16T18:53:43.653Z,13.66
2023-05-16T18:56:15.917Z,14.06
2023-05-16T18:58:48.185Z,13.92
2023-05-16T19:01:22.475Z,14.34
2023-05-16T19:03:55.087Z,13.33
2023-05-16T19:06:27.492Z,13.76
2023-05-16T19:09:02.284Z,15.47
2023-05-16T19:11:34.424Z,15.33
2023-05-16T19:14:06.864Z,15.20
2023-05-16T19:16:39.479Z,15.03
2023-05-16T19:19:11.834Z,14.94
2023-05-16T19:21:44.237Z,14.53
2023-05-16T19:24:19.324Z,17.14
2023-05-16T19:26:51.624Z,16.64
2023-05-16T19:29:23.870Z,15.54
2023-05-16T19:31:56.200Z,18.66
2023-05-16T19:34:28.761Z,19.19
2023-05-16T19:37:02.733Z,17.63
2023-05-16T19:39:37.816Z,16.69
2023-05-16T19:42:10.736Z,16.90
2023-05-16T19:44:43.036Z,17.54
2023-05-16T19:47:15.328Z,18.44
2023-05-16T19:49:47.795Z,17.14
2023-05-16T19:52:20.065Z,17.40
2023-05-16T19:54:54.869Z,17.33
2023-05-16T19:57:27.212Z,17.64
2023-05-16T19:59:59.405Z,18.79
2023-05-16T20:02:31.744Z,18.94
2023-05-16T20:05:04.678Z,18.32
2023-05-16T20:07:37.038Z,16.90
2023-05-16T20:10:13.671Z,18.67
2023-05-16T20:12:45.993Z,17.36
2023-05-16T20:15:19.070Z,17.76
2023-05-16T20:17:51.446Z,18.64
2023-05-16T20:20:23.874Z,19.78
2023-05-16T20:22:56.212Z,20.96
2023-05-16T20:25:32.327Z,18.77
2023-05-16T20:28:04.737Z,21.53
2023-05-16T20:30:37.233Z,21.39
2023-05-16T20:33:09.624Z,19.67
2023-05-16T20:35:41.855Z,22.06
2023-05-16T20:38:14.238Z,22.39
2023-05-16T20:40:49.378Z,22.99
2023-05-16T20:43:21.684Z,20.97
2023-05-16T20:45:53.964Z,21.75
2023-05-16T20:48:26.633Z,22.14
2023-05-16T20:50:59.125Z,22.29
2023-05-16T20:53:34.439Z,22.27
2023-05-16T20:56:09.742Z,22.73
2023-05-16T20:58:42.391Z,23.33
2023-05-16T21:01:14.672Z,25.94
2023-05-16T21:03:46.935Z,23.56
2023-05-16T21:06:19.180Z,23.92
2023-05-16T21:08:51.618Z,24.01
2023-05-16T21:11:27.830Z,24.40
2023-05-16T21:14:00.074Z,24.51
2023-05-16T21:16:32.791Z,25.09
2023-05-16T21:19:05.365Z,25.84
2023-05-16T21:21:37.749Z,25.04
2023-05-16T21:24:10.594Z,26.46
2023-05-16T21:26:45.471Z,25.52
2023-05-16T21:29:17.943Z,27.31
2023-05-16T21:31:50.194Z,27.36
2023-05-16T21:34:22.442Z,25.95
2023-05-16T21:36:54.657Z,25.73
2023-05-16T21:39:26.992Z,24.34
2023-05-16T21:42:01.809Z,24.90
2023-05-16T21:44:34.273Z,26.43
2023-05-16T21:47:06.502Z,26.28
2023-05-16T21:49:38.952Z,28.63
2023-05-16T21:52:11.548Z,27.96
2023-05-16T21:54:43.780Z,26.95
2023-05-16T21:57:18.599Z,28.31
2023-05-16T21:59:51.932Z,29.08
2023-05-16T22:02:24.208Z,28.92
2023-05-16T22:04:57.365Z,28.19
2023-05-16T22:07:30.356Z,29.96
2023-05-16T22:10:03.310Z,29.51
2023-05-16T22:12:38.117Z,31.04
2023-05-16T22:15:11.512Z,30.74
2023-05-16T22:17:44.232Z,31.24
2023-05-16T22:20:17.268Z,30.60
2023-05-16T22:22:50.919Z,31.74
2023-05-16T22:25:23.231Z,30.11
2023-05-16T22:27:58.100Z,33.08
2023-05-16T22:30:30.278Z,31.76
2023-05-16T22:33:03.916Z,32.39
2023-05-16T22:35:36.258Z,31.72
2023-05-16T22:38:08.554Z,31.94
2023-05-16T22:40:41.331Z,31.25
2023-05-16T22:43:16.257Z,31.24
2023-05-16T22:45:51.654Z,29.91
2023-05-16T22:48:23.994Z,32.76
2023-05-16T22:50:56.277Z,33.64
2023-05-16T22:53:28.604Z,34.38
2023-05-16T22:56:00.981Z,33.31
2023-05-16T22:58:35.868Z,33.11
2023-05-16T23:01:08.700Z,35.28
2023-05-16T23:03:41.115Z,34.34
2023-05-16T23:06:13.303Z,34.61
2023-05-16T23:08:45.885Z,34.84
2023-05-16T23:11:19.920Z,35.19
2023-05-16T23:13:54.724Z,34.19
2023-05-16T23:16:27.010Z,36.44
2023-05-16T23:18:59.549Z,35.00
2023-05-16T23:21:32.118Z,33.91
2023-05-16T23:24:04.346Z,37.71
2023-05-16T23:26:36.577Z,35.82
2023-05-16T23:29:11.570Z,36.53
2023-05-16T23:31:43.796Z,35.89
2023-05-16T23:34:16.178Z,35.33
2023-05-16T23:36:48.369Z,37.99
2023-05-16T23:39:21.672Z,37.01
2023-05-16T23:41:53.854Z,36.74
2023-05-16T23:44:31.600Z,36.50
2023-05-16T23:47:03.891Z,37.49
2023-05-16T23:49:36.300Z,38.27
2023-05-16T23:52:10.107Z,37.11
2023-05-16T23:54:42.308Z,36.96
2023-05-16T23:57:14.516Z,37.00
2023-05-16T23:59:49.351Z,39.25
